Waverly, Indiana
Current Conditions -  °F | °C
As of 2:55 PM on Sunday 23 Nov 2014 (Local Time) from K1II Reporting Station
Light Rain Light Rain  
Wind Chill: 54°   Ceiling: 2400
Heat Index: 54°   Visibility: 7mi
Dew Point: 50°   Wind: 14mph
Humidity: 88%   Direction: 140°SE
Pressure: 29.61"   Gusts: 23mph
Location:  39.4615°N, 86.4578°W
Report Text: K1II 231955Z AUTO 14012G20KT 7SM -RA BKN024 OVC028 12/10 A2961 RMK AO2
Loading
Personal Weather Stations






























Interactive Weather Map New forecast layout! Learn more

10-Day Weather Forecast

Advertisements
Track Severe Weather on mobile